createdAt,value
2017-11-04T00:00:06.368Z,0
2017-11-04T00:01:06.367Z,0
2017-11-04T00:02:06.367Z,0
2017-11-04T00:03:06.414Z,0
2017-11-04T00:04:06.377Z,0
2017-11-04T00:05:06.364Z,0
2017-11-04T00:06:06.360Z,0
2017-11-04T00:07:06.363Z,0
2017-11-04T00:08:06.431Z,0
2017-11-04T00:09:06.371Z,0
2017-11-04T00:10:06.380Z,0
2017-11-04T00:11:06.360Z,0
2017-11-04T00:12:06.359Z,0
2017-11-04T00:13:06.413Z,0
2017-11-04T00:14:06.386Z,0
2017-11-04T00:15:06.360Z,0
2017-11-04T00:16:06.359Z,0
2017-11-04T00:17:06.377Z,0
2017-11-04T00:18:06.443Z,0
2017-11-04T00:19:06.356Z,0
2017-11-04T00:20:06.324Z,0
2017-11-04T00:21:06.337Z,0
2017-11-04T00:22:06.307Z,0
2017-11-04T00:23:06.370Z,0
2017-11-04T00:24:06.327Z,0
2017-11-04T00:25:06.321Z,0
2017-11-04T00:26:06.340Z,0
2017-11-04T00:27:06.322Z,0
2017-11-04T00:28:06.395Z,0
2017-11-04T00:29:06.323Z,0
2017-11-04T00:30:06.333Z,0
2017-11-04T00:31:06.328Z,0
2017-11-04T00:32:06.333Z,0
2017-11-04T00:37:06.330Z,0
2017-11-04T00:38:06.333Z,0
2017-11-04T00:39:06.374Z,0
2017-11-04T00:40:06.320Z,0
2017-11-04T00:41:06.325Z,0
2017-11-04T00:42:06.326Z,0
2017-11-04T00:43:06.328Z,0
2017-11-04T00:44:06.373Z,0
2017-11-04T00:45:06.328Z,0
2017-11-04T00:46:06.328Z,0
2017-11-04T00:47:06.312Z,0
2017-11-04T00:48:06.331Z,0
2017-11-04T00:49:06.391Z,0
2017-11-04T00:50:06.326Z,0
2017-11-04T00:51:06.317Z,0
2017-11-04T00:52:06.317Z,0
2017-11-04T00:53:06.330Z,0
2017-11-04T00:54:06.378Z,0
2017-11-04T00:55:06.309Z,0
2017-11-04T00:56:06.308Z,0
2017-11-04T00:57:06.323Z,0
2017-11-04T00:58:06.323Z,0
2017-11-04T00:59:06.367Z,0
2017-11-04T01:00:06.322Z,0
2017-11-04T01:01:06.317Z,0
2017-11-04T01:02:06.313Z,0
2017-11-04T01:03:06.337Z,0
2017-11-04T01:04:06.383Z,0
2017-11-04T01:05:06.320Z,0
2017-11-04T01:06:06.313Z,0
2017-11-04T01:07:06.319Z,0
2017-11-04T01:08:06.316Z,0
2017-11-04T01:09:06.364Z,0
2017-11-04T01:10:06.312Z,0
2017-11-04T01:11:06.315Z,0
2017-11-04T01:12:06.317Z,0
2017-11-04T01:13:06.304Z,0
2017-11-04T01:14:06.313Z,0
2017-11-04T01:15:06.319Z,0
2017-11-04T01:16:06.305Z,0
2017-11-04T01:17:06.297Z,0
2017-11-04T01:18:06.313Z,0
2017-11-04T01:19:06.302Z,0
2017-11-04T01:20:06.308Z,0
2017-11-04T01:21:06.309Z,0
2017-11-04T01:22:06.302Z,0
2017-11-04T01:23:06.311Z,0
2017-11-04T01:28:06.306Z,0
2017-11-04T01:29:06.293Z,0
2017-11-04T01:30:06.381Z,0
2017-11-04T01:31:06.294Z,0
2017-11-04T01:32:06.303Z,0
2017-11-04T01:33:06.300Z,0
2017-11-04T01:34:06.305Z,0
2017-11-04T01:35:06.350Z,0
2017-11-04T01:36:06.304Z,0
2017-11-04T01:37:06.309Z,0
2017-11-04T01:38:06.291Z,0
2017-11-04T01:39:06.308Z,0
2017-11-04T01:40:06.372Z,0
2017-11-04T01:41:06.293Z,0
2017-11-04T01:42:06.293Z,0
2017-11-04T01:43:06.311Z,0
2017-11-04T01:44:06.309Z,0
2017-11-04T01:45:06.345Z,0
2017-11-04T01:46:06.283Z,0
2017-11-04T01:47:06.300Z,0
2017-11-04T01:48:06.289Z,0
2017-11-04T01:49:06.300Z,0
2017-11-04T01:50:06.369Z,0
2017-11-04T01:51:06.281Z,0
2017-11-04T01:52:06.298Z,0
2017-11-04T01:53:06.296Z,0
2017-11-04T01:54:06.299Z,0
2017-11-04T01:55:06.358Z,0
2017-11-04T01:56:06.292Z,0
2017-11-04T01:57:06.296Z,0
2017-11-04T01:58:06.282Z,0
2017-11-04T01:59:06.294Z,0
2017-11-04T02:00:06.322Z,0
2017-11-04T02:01:06.281Z,0
2017-11-04T02:02:06.274Z,0
2017-11-04T02:03:06.290Z,0
2017-11-04T02:04:06.272Z,0
2017-11-04T02:05:06.354Z,0
2017-11-04T02:06:06.290Z,0
2017-11-04T02:07:06.288Z,0
2017-11-04T02:08:06.276Z,0
2017-11-04T02:09:06.286Z,0
2017-11-04T02:10:06.334Z,0
2017-11-04T02:11:06.284Z,0
2017-11-04T02:12:06.283Z,0
2017-11-04T02:13:06.284Z,0
2017-11-04T02:14:06.272Z,0
2017-11-04T02:15:06.359Z,0
2017-11-04T02:16:06.283Z,0
2017-11-04T02:17:06.266Z,0
2017-11-04T02:18:06.282Z,0
2017-11-04T02:19:06.277Z,0
2017-11-04T02:20:06.331Z,0
2017-11-04T02:21:06.267Z,0
2017-11-04T02:22:06.281Z,0
2017-11-04T02:23:06.259Z,0
2017-11-04T02:24:06.282Z,0
2017-11-04T02:25:06.346Z,0
2017-11-04T02:26:06.283Z,0
2017-11-04T02:27:06.266Z,0
2017-11-04T02:28:06.270Z,0
2017-11-04T02:29:06.260Z,0
2017-11-04T02:30:06.327Z,0
2017-11-04T02:31:06.252Z,0
2017-11-04T02:32:06.267Z,0
2017-11-04T02:33:06.275Z,0
2017-11-04T02:34:06.254Z,0
2017-11-04T02:35:06.347Z,0
2017-11-04T02:36:06.270Z,0
2017-11-04T02:37:06.274Z,0
2017-11-04T02:38:06.264Z,0
2017-11-04T02:39:06.252Z,0
2017-11-04T02:40:06.318Z,0
2017-11-04T02:41:06.265Z,0
2017-11-04T02:42:06.266Z,0
2017-11-04T02:43:06.271Z,0
2017-11-04T02:44:06.251Z,0
2017-11-04T02:45:06.310Z,0
2017-11-04T02:46:06.251Z,0
2017-11-04T02:47:06.261Z,0
2017-11-04T02:48:06.268Z,0
2017-11-04T02:49:06.245Z,0
2017-11-04T02:50:06.270Z,0
2017-11-04T02:51:06.269Z,0
2017-11-04T02:52:06.255Z,0
2017-11-04T02:53:06.262Z,0
2017-11-04T02:54:06.263Z,0
2017-11-04T02:55:06.261Z,0
2017-11-04T02:56:06.262Z,0
2017-11-04T02:57:06.251Z,0
2017-11-04T02:58:06.247Z,0
2017-11-04T02:59:06.247Z,0
2017-11-04T03:00:06.242Z,0
2017-11-04T03:01:06.265Z,0
2017-11-04T03:02:06.255Z,0
2017-11-04T03:03:06.255Z,0
2017-11-04T03:04:06.238Z,0
2017-11-04T03:05:06.254Z,0
2017-11-04T03:06:06.251Z,0
2017-11-04T03:07:06.256Z,0
2017-11-04T03:08:06.253Z,0
2017-11-04T03:09:06.250Z,0
2017-11-04T03:10:06.238Z,0
2017-11-04T03:11:06.256Z,0
2017-11-04T03:12:06.248Z,0
2017-11-04T03:13:06.240Z,0
2017-11-04T03:14:06.237Z,0
2017-11-04T03:15:06.230Z,0
2017-11-04T03:16:06.247Z,0
2017-11-04T03:17:06.236Z,0
2017-11-04T03:18:06.235Z,0
2017-11-04T03:19:06.255Z,0
2017-11-04T03:20:06.247Z,0
2017-11-04T03:21:06.226Z,0
2017-11-04T03:22:06.244Z,0
2017-11-04T03:23:06.246Z,0
2017-11-04T03:24:06.254Z,0
2017-11-04T03:25:06.228Z,0
2017-11-04T03:26:06.243Z,0
2017-11-04T03:27:06.244Z,0
2017-11-04T03:28:06.250Z,0
2017-11-04T03:29:06.240Z,0
2017-11-04T03:30:06.224Z,0
2017-11-04T03:31:06.241Z,0
2017-11-04T03:32:06.232Z,0
2017-11-04T03:33:06.224Z,0
2017-11-04T03:34:06.236Z,0
2017-11-04T03:35:06.221Z,0
2017-11-04T03:36:06.272Z,0
2017-11-04T03:37:06.244Z,0
2017-11-04T03:38:06.240Z,0
2017-11-04T03:39:06.258Z,0
2017-11-04T03:40:06.220Z,0
2017-11-04T03:41:06.263Z,0
2017-11-04T03:42:06.232Z,0
2017-11-04T03:43:06.214Z,0
2017-11-04T03:44:06.226Z,0
2017-11-04T03:45:06.235Z,0
2017-11-04T03:46:06.297Z,0
2017-11-04T03:47:06.244Z,0
2017-11-04T03:48:06.228Z,0
2017-11-04T03:49:06.228Z,0
2017-11-04T03:50:06.224Z,0
2017-11-04T03:51:06.270Z,0
2017-11-04T03:52:06.209Z,0
2017-11-04T03:53:06.213Z,0
2017-11-04T03:54:06.225Z,0
2017-11-04T03:55:06.213Z,0
2017-11-04T03:56:06.266Z,0
2017-11-04T03:57:06.220Z,0
2017-11-04T03:58:06.204Z,0
2017-11-04T03:59:06.228Z,0
2017-11-04T04:00:06.219Z,0
2017-11-04T04:01:06.283Z,0
2017-11-04T04:02:06.208Z,0
2017-11-04T04:03:06.216Z,0
2017-11-04T04:04:06.224Z,0
2017-11-04T04:05:06.201Z,0
2017-11-04T04:06:06.262Z,0
2017-11-04T04:07:06.220Z,0
2017-11-04T04:08:06.219Z,0
2017-11-04T04:09:06.225Z,0
2017-11-04T04:10:06.220Z,0
2017-11-04T04:11:06.220Z,0
2017-11-04T04:12:06.210Z,0
2017-11-04T04:13:06.226Z,0
2017-11-04T04:14:06.202Z,0
2017-11-04T04:15:06.193Z,0
2017-11-04T04:16:06.214Z,0
2017-11-04T04:17:06.213Z,0
2017-11-04T04:18:06.205Z,0
2017-11-04T04:19:06.214Z,0
2017-11-04T04:20:06.206Z,0
2017-11-04T04:21:06.214Z,0
2017-11-04T04:22:06.194Z,0
2017-11-04T04:23:06.206Z,0
2017-11-04T04:24:06.202Z,0
2017-11-04T04:25:06.205Z,0
2017-11-04T04:26:06.188Z,0
2017-11-04T04:27:06.190Z,0
2017-11-04T04:28:06.207Z,0
2017-11-04T04:29:06.204Z,0
2017-11-04T04:30:06.198Z,0
2017-11-04T04:31:06.202Z,0
2017-11-04T04:32:06.199Z,0
2017-11-04T04:33:06.206Z,0
2017-11-04T04:34:06.198Z,0
2017-11-04T04:35:06.194Z,0
2017-11-04T04:36:06.211Z,0
2017-11-04T04:37:06.200Z,0
2017-11-04T04:38:06.187Z,0
2017-11-04T04:39:06.199Z,0
2017-11-04T04:40:06.199Z,0
2017-11-04T04:41:06.189Z,0
2017-11-04T04:42:06.196Z,0
2017-11-04T04:43:06.175Z,0
2017-11-04T04:44:06.192Z,0
2017-11-04T04:45:06.176Z,0
2017-11-04T04:46:06.176Z,0
2017-11-04T04:47:06.183Z,0
2017-11-04T04:48:06.197Z,0
2017-11-04T04:49:06.189Z,0
2017-11-04T04:50:06.195Z,0
2017-11-04T04:51:06.202Z,0
2017-11-04T04:52:06.196Z,0
2017-11-04T04:53:06.185Z,0
2017-11-04T04:54:06.188Z,0
2017-11-04T04:55:06.191Z,0
2017-11-04T04:56:06.189Z,0
2017-11-04T04:57:06.178Z,0
2017-11-04T04:58:06.175Z,0
2017-11-04T04:59:06.189Z,0
2017-11-04T05:00:06.175Z,0
2017-11-04T05:01:06.189Z,0
2017-11-04T05:02:06.172Z,0
2017-11-04T05:03:06.191Z,0
2017-11-04T05:04:06.213Z,0
2017-11-04T05:05:06.167Z,0
2017-11-04T05:06:06.170Z,0
2017-11-04T05:07:06.227Z,0
2017-11-04T05:08:06.185Z,0
2017-11-04T05:09:06.175Z,0
2017-11-04T05:10:06.179Z,0
2017-11-04T05:11:06.181Z,0
2017-11-04T05:12:06.223Z,0
2017-11-04T05:13:06.178Z,0
2017-11-04T05:14:06.179Z,0
2017-11-04T05:15:06.162Z,0
2017-11-04T05:16:06.174Z,0
2017-11-04T05:17:06.237Z,0
2017-11-04T05:18:06.155Z,0
2017-11-04T05:19:06.173Z,0
2017-11-04T05:20:06.167Z,0
2017-11-04T05:21:06.163Z,0
2017-11-04T05:22:06.214Z,0
2017-11-04T05:23:06.162Z,0
2017-11-04T05:24:06.165Z,0
2017-11-04T05:25:06.173Z,0
2017-11-04T05:26:06.164Z,0
2017-11-04T05:27:06.219Z,0
2017-11-04T05:28:06.161Z,0
2017-11-04T05:29:06.149Z,0
2017-11-04T05:30:06.174Z,0
2017-11-04T05:31:06.162Z,0
2017-11-04T05:32:06.226Z,0
2017-11-04T05:33:06.162Z,0
2017-11-04T05:34:06.162Z,0
2017-11-04T05:35:06.167Z,0
2017-11-04T05:36:06.159Z,0
2017-11-04T05:37:06.231Z,0
2017-11-04T05:38:06.159Z,0
2017-11-04T05:39:06.137Z,0
2017-11-04T05:40:06.143Z,0
2017-11-04T05:41:06.138Z,0
2017-11-04T05:42:06.201Z,0
2017-11-04T05:43:06.171Z,0
2017-11-04T05:44:06.156Z,0
2017-11-04T05:45:06.152Z,0
2017-11-04T05:46:06.158Z,0
2017-11-04T05:47:06.224Z,0
2017-11-04T05:48:06.158Z,0
2017-11-04T05:49:06.155Z,0
2017-11-04T05:50:06.141Z,0
2017-11-04T05:51:06.150Z,0
2017-11-04T05:52:06.200Z,0
2017-11-04T05:53:06.143Z,0
2017-11-04T05:54:06.151Z,0
2017-11-04T05:55:06.143Z,0
2017-11-04T05:56:06.147Z,0
2017-11-04T05:57:06.201Z,0
2017-11-04T05:58:06.131Z,0
2017-11-04T05:59:06.143Z,0
2017-11-04T06:00:06.141Z,0
2017-11-04T06:01:06.144Z,0
2017-11-04T06:02:06.175Z,0
2017-11-04T06:03:06.145Z,0
2017-11-04T06:04:06.147Z,0
2017-11-04T06:05:06.124Z,0
2017-11-04T06:06:06.134Z,0
2017-11-04T06:07:06.171Z,0
2017-11-04T06:08:06.137Z,0
2017-11-04T06:09:06.145Z,0
2017-11-04T06:10:06.130Z,0
2017-11-04T06:11:06.135Z,0
2017-11-04T06:12:06.179Z,0
2017-11-04T06:13:06.139Z,0
2017-11-04T06:14:06.134Z,0
2017-11-04T06:15:06.126Z,0
2017-11-04T06:16:06.131Z,0
2017-11-04T06:17:06.124Z,0
2017-11-04T06:18:06.124Z,0
2017-11-04T06:19:06.120Z,0
2017-11-04T06:20:06.130Z,0
2017-11-04T06:21:06.134Z,0
2017-11-04T06:22:06.133Z,0
2017-11-04T06:23:06.130Z,0
2017-11-04T06:24:06.121Z,0
2017-11-04T06:25:06.133Z,0
2017-11-04T06:26:06.131Z,0
2017-11-04T06:27:06.123Z,0
2017-11-04T06:28:06.131Z,0
2017-11-04T06:29:06.132Z,0
2017-11-04T06:30:06.125Z,0
2017-11-04T06:31:06.135Z,0
2017-11-04T06:32:06.154Z,0
2017-11-04T06:33:06.109Z,0
2017-11-04T06:34:06.112Z,0
2017-11-04T06:35:06.122Z,0
2017-11-04T06:36:06.111Z,0
2017-11-04T06:37:06.124Z,0
2017-11-04T06:38:06.103Z,0
2017-11-04T06:39:06.126Z,0
2017-11-04T06:40:06.115Z,0
2017-11-04T06:41:06.116Z,0
2017-11-04T06:42:06.112Z,0
2017-11-04T06:43:06.116Z,0
2017-11-04T06:44:06.114Z,0
2017-11-04T06:45:06.117Z,0
2017-11-04T06:46:06.116Z,0
2017-11-04T06:47:06.118Z,0
2017-11-04T06:48:06.106Z,0
2017-11-04T06:49:06.126Z,0
2017-11-04T06:50:06.121Z,0
2017-11-04T06:51:06.125Z,0
2017-11-04T06:52:06.111Z,0
2017-11-04T06:53:06.150Z,0
2017-11-04T06:54:06.102Z,0
2017-11-04T06:55:06.104Z,0
2017-11-04T06:56:06.110Z,0
2017-11-04T06:57:06.108Z,0
2017-11-04T06:58:06.134Z,0
2017-11-04T06:59:06.111Z,0
2017-11-04T07:00:06.105Z,0
2017-11-04T07:01:06.116Z,0
2017-11-04T07:02:06.120Z,0
2017-11-04T07:03:06.139Z,0
2017-11-04T07:04:06.505Z,0
2017-11-04T07:05:06.177Z,0
2017-11-04T07:06:06.216Z,0
2017-11-04T07:07:06.124Z,0
2017-11-04T07:08:06.332Z,0
2017-11-04T07:09:06.336Z,0
2017-11-04T07:10:06.231Z,0
2017-11-04T07:11:06.241Z,0
2017-11-04T07:12:06.215Z,0
2017-11-04T07:13:09.297Z,0
2017-11-04T07:14:06.135Z,0
2017-11-04T07:15:06.194Z,0
2017-11-04T07:16:06.117Z,0
2017-11-04T07:17:06.309Z,0
2017-11-04T07:18:06.168Z,0
2017-11-04T07:19:09.127Z,0
2017-11-04T07:20:06.123Z,0
2017-11-04T07:21:06.149Z,0
2017-11-04T07:22:06.090Z,0
2017-11-04T07:23:06.147Z,0
2017-11-04T07:24:06.106Z,0
2017-11-04T07:25:06.080Z,0
2017-11-04T07:26:06.093Z,0
2017-11-04T07:27:06.096Z,0
2017-11-04T07:28:06.148Z,0
2017-11-04T07:29:06.099Z,0
2017-11-04T07:30:06.078Z,0
2017-11-04T07:31:06.083Z,0
2017-11-04T07:32:06.078Z,0
2017-11-04T07:33:06.110Z,0
2017-11-04T07:34:06.089Z,0
2017-11-04T07:35:06.090Z,0
2017-11-04T07:36:06.082Z,0
2017-11-04T07:37:06.077Z,0
2017-11-04T07:38:06.144Z,0
2017-11-04T07:39:06.084Z,0
2017-11-04T07:40:06.095Z,0
2017-11-04T07:41:06.073Z,0
2017-11-04T07:42:06.076Z,0
2017-11-04T07:43:06.160Z,0
2017-11-04T07:44:06.088Z,0
2017-11-04T07:45:06.072Z,0
2017-11-04T07:46:06.087Z,0
2017-11-04T07:47:06.083Z,0
2017-11-04T07:48:06.137Z,0
2017-11-04T07:49:06.093Z,0
2017-11-04T07:50:06.086Z,0
2017-11-04T07:51:06.084Z,0
2017-11-04T07:52:06.065Z,0
2017-11-04T07:53:06.148Z,0
2017-11-04T07:54:06.066Z,0
2017-11-04T07:55:06.064Z,0
2017-11-04T07:56:06.087Z,0
2017-11-04T07:57:06.066Z,0
2017-11-04T07:58:06.430Z,0
2017-11-04T07:59:06.046Z,0
2017-11-04T08:00:06.086Z,0
2017-11-04T08:01:06.135Z,0
2017-11-04T08:02:11.899Z,0
2017-11-04T08:03:08.846Z,0
2017-11-04T08:04:06.062Z,0
2017-11-04T08:05:06.061Z,0
2017-11-04T08:06:06.073Z,0
2017-11-04T08:07:06.084Z,0
2017-11-04T08:08:06.121Z,0
2017-11-04T08:09:07.147Z,0
2017-11-04T08:10:06.157Z,0
2017-11-04T08:11:06.073Z,0
2017-11-04T08:12:06.062Z,0
2017-11-04T08:13:06.058Z,0
2017-11-04T08:14:06.047Z,0
2017-11-04T08:15:06.779Z,0
2017-11-04T08:16:08.931Z,0
2017-11-04T08:17:07.028Z,0
2017-11-04T08:18:11.571Z,0
2017-11-04T08:19:07.711Z,0
2017-11-04T08:20:06.611Z,0
2017-11-04T08:21:08.180Z,0
2017-11-04T08:22:06.399Z,0
2017-11-04T08:23:06.384Z,0
2017-11-04T08:24:15.152Z,0
2017-11-04T08:25:13.808Z,0
2017-11-04T08:26:12.049Z,0
2017-11-04T08:27:06.942Z,0
2017-11-04T08:28:08.263Z,0
2017-11-04T08:29:06.337Z,0
2017-11-04T08:30:06.189Z,0
2017-11-04T08:31:06.173Z,0
2017-11-04T08:32:09.231Z,0
2017-11-04T08:33:09.638Z,0
2017-11-04T08:34:20.724Z,0
2017-11-04T08:35:18.161Z,0
2017-11-04T08:37:11.821Z,0
2017-11-04T08:38:10.564Z,0
2017-11-04T08:39:12.942Z,0
2017-11-04T08:40:15.928Z,0
2017-11-04T08:41:25.883Z,0
2017-11-04T08:42:15.020Z,0
2017-11-04T08:43:27.416Z,0
2017-11-04T08:44:19.982Z,0
2017-11-04T08:45:13.164Z,0
2017-11-04T08:46:13.909Z,0
2017-11-04T08:47:13.035Z,0
2017-11-04T08:48:12.103Z,0
2017-11-04T08:50:13.213Z,0
2017-11-04T08:51:10.909Z,0
2017-11-04T08:52:12.431Z,0
2017-11-04T08:53:12.378Z,0
2017-11-04T08:54:10.872Z,0
2017-11-04T08:55:12.452Z,0
2017-11-04T08:56:13.527Z,0
2017-11-04T08:57:10.255Z,0
2017-11-04T08:58:06.029Z,0
2017-11-04T08:59:06.044Z,0
2017-11-04T09:00:06.110Z,0
2017-11-04T09:01:06.047Z,0
2017-11-04T09:02:06.042Z,0
2017-11-04T09:03:06.054Z,0
2017-11-04T09:04:06.050Z,0
2017-11-04T09:05:08.192Z,0
2017-11-04T09:06:07.648Z,0
2017-11-04T09:07:06.227Z,0
2017-11-04T09:08:08.878Z,0
2017-11-04T09:09:07.021Z,0
2017-11-04T09:10:08.526Z,0
2017-11-04T09:11:06.033Z,0
2017-11-04T09:12:06.044Z,0
2017-11-04T09:13:06.190Z,0
2017-11-04T09:14:10.517Z,0
2017-11-04T09:15:08.843Z,0
2017-11-04T09:16:06.040Z,0
2017-11-04T09:17:06.022Z,0
2017-11-04T09:18:06.031Z,0
2017-11-04T09:19:06.054Z,0
2017-11-04T09:20:06.039Z,0
2017-11-04T09:21:06.109Z,0
2017-11-04T09:22:06.038Z,0
2017-11-04T09:23:06.049Z,0
2017-11-04T09:24:06.048Z,0
2017-11-04T09:25:06.059Z,0
2017-11-04T09:26:06.098Z,0
2017-11-04T09:27:06.042Z,0
2017-11-04T09:28:06.048Z,0
2017-11-04T09:29:10.643Z,0
2017-11-04T09:30:06.048Z,0
2017-11-04T09:31:06.094Z,0
2017-11-04T09:32:06.045Z,0
2017-11-04T09:33:06.054Z,0
2017-11-04T09:34:06.047Z,0.2
2017-11-04T09:35:06.045Z,0.2
2017-11-04T09:36:06.043Z,0.2
2017-11-04T09:37:06.055Z,0.1
2017-11-04T09:38:06.050Z,0.1
2017-11-04T09:39:06.047Z,0.1
2017-11-04T09:40:06.030Z,0.1
2017-11-04T09:41:06.045Z,0.1
2017-11-04T09:42:06.160Z,0.1
2017-11-04T09:43:06.049Z,0.1
2017-11-04T09:44:06.051Z,0.1
2017-11-04T09:45:06.044Z,0.1
2017-11-04T09:46:06.043Z,0.1
2017-11-04T09:47:06.053Z,0.1
2017-11-04T09:48:06.045Z,0
2017-11-04T09:49:06.040Z,0
2017-11-04T09:50:06.043Z,0
2017-11-04T09:51:06.039Z,0
2017-11-04T09:52:06.040Z,0
2017-11-04T09:53:06.047Z,0
2017-11-04T09:54:06.044Z,0
2017-11-04T09:55:06.043Z,0
2017-11-04T09:56:06.027Z,0
2017-11-04T09:57:06.020Z,0
2017-11-04T09:58:06.045Z,0
2017-11-04T09:59:06.026Z,0
2017-11-04T10:00:06.035Z,0
2017-11-04T10:01:06.039Z,0
2017-11-04T10:02:06.041Z,0
2017-11-04T10:03:06.096Z,0
2017-11-04T10:04:06.039Z,0
2017-11-04T10:05:06.042Z,0
2017-11-04T10:06:06.042Z,0
2017-11-04T10:07:06.026Z,0
2017-11-04T10:08:06.037Z,0
2017-11-04T10:09:06.031Z,0
2017-11-04T10:10:06.046Z,0
2017-11-04T10:11:06.033Z,0
2017-11-04T10:12:06.038Z,0
2017-11-04T10:13:06.023Z,0
2017-11-04T10:14:06.041Z,0
2017-11-04T10:15:06.042Z,0
2017-11-04T10:16:06.039Z,0
2017-11-04T10:17:06.040Z,0
2017-11-04T10:18:06.025Z,0
2017-11-04T10:19:06.039Z,0
2017-11-04T10:20:06.031Z,0
2017-11-04T10:21:06.044Z,0
2017-11-04T10:22:06.026Z,0
2017-11-04T10:23:06.036Z,0
2017-11-04T10:24:06.020Z,0
2017-11-04T10:25:06.034Z,0
2017-11-04T10:26:06.018Z,0
2017-11-04T10:27:06.040Z,0
2017-11-04T10:28:06.034Z,0
2017-11-04T10:29:06.034Z,0
2017-11-04T10:30:06.031Z,0
2017-11-04T10:31:06.017Z,0
2017-11-04T10:32:06.032Z,0
2017-11-04T10:33:06.033Z,0
2017-11-04T10:34:06.033Z,0
2017-11-04T10:35:06.033Z,0
2017-11-04T10:36:06.024Z,0
2017-11-04T10:37:06.015Z,0
2017-11-04T10:38:06.040Z,0
2017-11-04T10:39:06.039Z,0
2017-11-04T10:40:06.017Z,0
2017-11-04T10:41:06.055Z,0
2017-11-04T10:42:06.019Z,0
2017-11-04T10:43:06.034Z,0
2017-11-04T10:44:06.052Z,0
2017-11-04T10:45:06.020Z,0
2017-11-04T10:46:06.025Z,0
2017-11-04T10:47:06.026Z,0
2017-11-04T10:48:06.027Z,0
2017-11-04T10:49:06.013Z,0
2017-11-04T10:50:06.033Z,0
2017-11-04T10:51:06.033Z,0
2017-11-04T10:52:06.028Z,0
2017-11-04T10:53:06.027Z,0
2017-11-04T10:54:06.039Z,0
2017-11-04T10:55:06.017Z,0
2017-11-04T10:56:06.028Z,0
2017-11-04T10:57:06.031Z,0
2017-11-04T10:58:06.028Z,0
2017-11-04T10:59:06.029Z,0
2017-11-04T11:00:06.016Z,0.1
2017-11-04T11:01:06.031Z,0.3
2017-11-04T11:02:06.027Z,0.3
2017-11-04T11:03:06.030Z,0.5
2017-11-04T11:04:06.032Z,0.6
2017-11-04T11:05:06.011Z,0.5
2017-11-04T11:06:06.031Z,0.5
2017-11-04T11:07:06.029Z,0.4
2017-11-04T11:08:06.012Z,0.7
2017-11-04T11:09:06.014Z,0.8
2017-11-04T11:10:06.028Z,1
2017-11-04T11:11:06.027Z,0.9
2017-11-04T11:12:06.033Z,0.8
2017-11-04T11:13:06.033Z,0.7
2017-11-04T11:14:06.012Z,0.9
2017-11-04T11:15:06.017Z,0.9
2017-11-04T11:16:06.014Z,1.2
2017-11-04T11:17:06.227Z,1.1
2017-11-04T11:18:06.010Z,1.2
2017-11-04T11:19:06.021Z,1.2
2017-11-04T11:20:06.026Z,1.4
2017-11-04T11:21:06.031Z,1.3
2017-11-04T11:22:06.029Z,1.2
2017-11-04T11:23:06.032Z,1.1
2017-11-04T11:24:06.040Z,1
2017-11-04T11:25:06.021Z,0.9
2017-11-04T11:26:15.927Z,0.9
2017-11-04T11:27:06.015Z,0.8
2017-11-04T11:28:06.030Z,0.8
2017-11-04T11:29:06.008Z,0.8
2017-11-04T11:30:06.028Z,1.2
2017-11-04T11:31:06.030Z,1.1
2017-11-04T11:32:06.064Z,1
2017-11-04T11:33:06.021Z,0.9
2017-11-04T11:34:06.008Z,0.8
2017-11-04T11:35:06.026Z,0.7
2017-11-04T11:36:06.007Z,0.6
2017-11-04T11:37:06.072Z,0.6
2017-11-04T11:38:06.035Z,0.5
2017-11-04T11:39:06.034Z,0.5
2017-11-04T11:40:06.021Z,0.4
2017-11-04T11:41:06.026Z,0.4
2017-11-04T11:42:06.063Z,0.4
2017-11-04T11:43:10.433Z,0.3
2017-11-04T11:44:05.989Z,0.3
2017-11-04T11:45:06.024Z,0.3
2017-11-04T11:46:06.031Z,0.2
2017-11-04T11:47:06.052Z,0.2
2017-11-04T11:48:06.032Z,0.2
2017-11-04T11:49:06.033Z,0.2
2017-11-04T11:50:06.025Z,0.2
2017-11-04T11:51:06.025Z,0.1
2017-11-04T11:52:06.031Z,0.1
2017-11-04T11:53:06.020Z,0.1
2017-11-04T11:54:06.016Z,0.1
2017-11-04T11:55:06.002Z,0.1
2017-11-04T11:56:06.008Z,0.1
2017-11-04T11:57:05.996Z,0.2
2017-11-04T11:58:06.067Z,0.2
2017-11-04T11:59:06.024Z,0.1
2017-11-04T12:00:06.007Z,0.1
2017-11-04T12:01:06.002Z,0.1
2017-11-04T12:02:06.017Z,0.1
2017-11-04T12:03:06.016Z,0.1
2017-11-04T12:04:06.019Z,0.1
2017-11-04T12:05:06.021Z,0.1
2017-11-04T12:06:06.002Z,0.1
2017-11-04T12:07:06.025Z,0.1
2017-11-04T12:08:06.048Z,0.1
2017-11-04T12:09:06.003Z,0.1
2017-11-04T12:10:06.033Z,0
2017-11-04T12:11:05.983Z,0
2017-11-04T12:12:06.017Z,0
2017-11-04T12:13:06.048Z,0
2017-11-04T12:14:06.006Z,0
2017-11-04T12:15:06.014Z,0
2017-11-04T12:16:06.004Z,0
2017-11-04T12:17:06.015Z,0
2017-11-04T12:18:06.082Z,0
2017-11-04T12:19:06.017Z,0
2017-11-04T12:20:06.020Z,0
2017-11-04T12:21:06.019Z,0
2017-11-04T12:22:06.014Z,0
2017-11-04T12:23:06.068Z,0
2017-11-04T12:24:06.010Z,0
2017-11-04T12:25:05.998Z,0
2017-11-04T12:26:06.022Z,0
2017-11-04T12:27:06.004Z,0
2017-11-04T12:28:06.016Z,0
2017-11-04T12:29:06.021Z,0
2017-11-04T12:30:06.015Z,0
2017-11-04T12:31:06.006Z,0
2017-11-04T12:32:06.012Z,0
2017-11-04T12:33:05.996Z,0
2017-11-04T12:34:06.007Z,0
2017-11-04T12:35:06.014Z,0
2017-11-04T12:36:06.055Z,0
2017-11-04T12:38:05.990Z,0
2017-11-04T12:39:06.011Z,0
2017-11-04T12:40:06.013Z,0
2017-11-04T12:41:05.990Z,0
2017-11-04T12:42:06.034Z,0
2017-11-04T12:43:06.285Z,0
2017-11-04T12:44:06.177Z,0
2017-11-04T12:45:06.160Z,0
2017-11-04T12:46:06.237Z,0
2017-11-04T12:47:06.005Z,0
2017-11-04T12:48:05.997Z,0
2017-11-04T12:49:05.997Z,0
2017-11-04T12:50:05.996Z,0
2017-11-04T12:51:05.990Z,0
2017-11-04T12:52:05.998Z,0
2017-11-04T12:53:05.997Z,0
2017-11-04T12:54:05.996Z,0
2017-11-04T12:55:05.990Z,0
2017-11-04T12:56:06.012Z,0
2017-11-04T12:57:06.354Z,0
2017-11-04T12:58:05.971Z,0
2017-11-04T12:59:06.031Z,0
2017-11-04T13:00:06.076Z,0
2017-11-04T13:01:06.346Z,0
2017-11-04T13:02:06.054Z,0
2017-11-04T13:03:06.170Z,0
2017-11-04T13:04:06.155Z,0
2017-11-04T13:05:06.011Z,0
2017-11-04T13:06:05.992Z,0
2017-11-04T13:07:06.188Z,0
2017-11-04T13:08:06.161Z,0
2017-11-04T13:09:06.100Z,0
2017-11-04T13:10:06.105Z,0
2017-11-04T13:11:06.236Z,0
2017-11-04T13:12:16.588Z,0
2017-11-04T13:13:06.143Z,0
2017-11-04T13:14:09.108Z,0
2017-11-04T13:15:06.014Z,0
2017-11-04T13:16:06.047Z,0
2017-11-04T13:17:06.035Z,0
2017-11-04T13:18:06.013Z,0
2017-11-04T13:19:06.136Z,0
2017-11-04T13:20:06.059Z,0
2017-11-04T13:21:06.089Z,0
2017-11-04T13:22:05.997Z,0
2017-11-04T13:23:06.005Z,0
2017-11-04T13:24:06.069Z,0
2017-11-04T13:25:06.806Z,0
2017-11-04T13:26:07.548Z,0
2017-11-04T13:27:06.041Z,0
2017-11-04T13:28:06.015Z,0
2017-11-04T13:29:06.023Z,0
2017-11-04T13:30:06.040Z,0
2017-11-04T13:31:06.026Z,0
2017-11-04T13:32:06.020Z,0
2017-11-04T13:33:09.146Z,0
2017-11-04T13:34:06.044Z,0
2017-11-04T13:35:06.044Z,0
2017-11-04T13:36:06.004Z,0
2017-11-04T13:37:06.100Z,0
2017-11-04T13:38:08.021Z,0
2017-11-04T13:39:06.030Z,0.1
2017-11-04T13:40:05.980Z,0.1
2017-11-04T13:41:06.012Z,0.1
2017-11-04T13:42:05.988Z,0.1
2017-11-04T13:43:05.998Z,0.1
2017-11-04T13:44:05.980Z,0.2
2017-11-04T13:45:05.988Z,0.2
2017-11-04T13:46:05.995Z,0.2
2017-11-04T13:47:05.992Z,0.1
2017-11-04T13:48:05.988Z,0.1
2017-11-04T13:49:05.998Z,0.1
2017-11-04T13:50:05.986Z,0.1
2017-11-04T13:51:05.993Z,0.1
2017-11-04T13:52:06.003Z,0.1
2017-11-04T13:53:05.992Z,0.1
2017-11-04T13:54:05.989Z,0.1
2017-11-04T13:55:06.038Z,0.1
2017-11-04T13:56:05.995Z,0.1
2017-11-04T13:57:06.003Z,0
2017-11-04T13:58:05.996Z,0
2017-11-04T13:59:05.995Z,0
2017-11-04T14:00:06.024Z,0
2017-11-04T14:01:05.993Z,0
2017-11-04T14:02:06.007Z,0
2017-11-04T14:03:05.972Z,0
2017-11-04T14:04:05.993Z,0
2017-11-04T14:05:06.061Z,0
2017-11-04T14:06:05.986Z,0
2017-11-04T14:07:05.991Z,0
2017-11-04T14:08:05.976Z,0
2017-11-04T14:09:05.996Z,0
2017-11-04T14:10:06.055Z,0
2017-11-04T14:11:05.979Z,0
2017-11-04T14:12:05.987Z,0
2017-11-04T14:13:05.990Z,0
2017-11-04T14:14:05.977Z,0
2017-11-04T14:15:06.023Z,0
2017-11-04T14:16:05.987Z,0
2017-11-04T14:17:05.991Z,0
2017-11-04T14:18:05.985Z,0
2017-11-04T14:19:05.987Z,0
2017-11-04T14:20:06.022Z,0
2017-11-04T14:21:05.996Z,0
2017-11-04T14:22:05.986Z,0
2017-11-04T14:23:05.987Z,0
2017-11-04T14:24:05.989Z,0
2017-11-04T14:25:06.022Z,0
2017-11-04T14:26:05.976Z,0
2017-11-04T14:27:05.985Z,0
2017-11-04T14:28:05.979Z,0
2017-11-04T14:29:05.979Z,0
2017-11-04T14:30:06.049Z,0
2017-11-04T14:31:05.984Z,0
2017-11-04T14:32:05.980Z,0
2017-11-04T14:33:05.975Z,0
2017-11-04T14:34:05.976Z,0
2017-11-04T14:35:06.055Z,0
2017-11-04T14:36:05.984Z,0
2017-11-04T14:37:05.986Z,0
2017-11-04T14:38:05.987Z,0
2017-11-04T14:39:05.980Z,0
2017-11-04T14:40:06.017Z,0
2017-11-04T14:41:05.988Z,0
2017-11-04T14:42:05.983Z,0
2017-11-04T14:43:05.975Z,0
2017-11-04T14:44:05.981Z,0
2017-11-04T14:45:06.037Z,0
2017-11-04T14:46:05.975Z,0
2017-11-04T14:47:05.975Z,0
2017-11-04T14:48:05.968Z,0
2017-11-04T14:49:05.982Z,0
2017-11-04T14:50:06.013Z,0